This is the latest recevied weather packets stored in our database for station/object KF7SOJ. If no packets are shown the sender has not sent any weather packets the latest 10 day(s).
| Time | Temp. | Humidity | Pressure | Rain* | Wind** | Luminosity | Snow |
|---|---|---|---|---|---|---|---|
| 1777445642 | 3.33° C | 80% | 935.2 hPa | 0 mm | - | 0 W/m² | - |
| 1777445338 | 3.33° C | 80% | 935 hPa | 0 mm | - | 0 W/m² | - |
| 1777445034 | 3.89° C | 78% | 935.1 hPa | 0 mm | - | 0 W/m² | - |
| 1777444730 | 3.33° C | 79% | 935 hPa | 0 mm | - | 0 W/m² | - |
| 1777444427 | 3.89° C | 78% | 935.3 hPa | 0 mm | - | 0 W/m² | - |
| 1777444124 | 3.33° C | 78% | 935.1 hPa | 0 mm | - | 0 W/m² | - |
| 1777443820 | 3.33° C | 78% | 935.1 hPa | 0 mm | - | 0 W/m² | - |
| 1777443515 | 3.89° C | 76% | 934.9 hPa | 0 mm | - | 0 W/m² | - |
| 1777443212 | 4.44° C | 74% | 935 hPa | 0 mm | - | 0 W/m² | - |
| 1777442909 | 4.44° C | 75% | 934.9 hPa | 0 mm | - | 0 W/m² | - |
| 1777442605 | 4.44° C | 75% | 935 hPa | 0 mm | - | 0 W/m² | - |
| 1777442300 | 4.44° C | 76% | 934.8 hPa | 0 mm | - | 0 W/m² | - |
| 1777441998 | 3.89° C | 78% | 934.9 hPa | 0 mm | - | 0 W/m² | - |
| 1777441693 | 3.89° C | 77% | 934.7 hPa | 0 mm | - | 0 W/m² | - |
| 1777441389 | 4.44° C | 75% | 934.9 hPa | 0 mm | - | 0 W/m² | - |
| 1777441083 | 4.44° C | 76% | 934.7 hPa | 0 mm | - | 0 W/m² | - |
| 1777440780 | 4.44° C | 77% | 934.8 hPa | 0 mm | - | 0 W/m² | - |
| 1777440476 | 4.44° C | 78% | 934.8 hPa | 0 mm | - | 0 W/m² | - |
| 1777440171 | 5° C | 76% | 934.9 hPa | 0 mm | - | 0 W/m² | - |
| 1777439868 | 5.56° C | 75% | 934.9 hPa | 0 mm | - | 0 W/m² | - |
| 1777439564 | 5.56° C | 75% | 934.7 hPa | 0 mm | - | 0 W/m² | - |
| 1777439265 | 5.56° C | 75% | 934.8 hPa | 0 mm | - | 0 W/m² | - |
| 1777438962 | 5.56° C | 76% | 934.7 hPa | 0 mm | - | 0 W/m² | - |
| 1777438659 | 5.56° C | 73% | 934.6 hPa | 0 mm | - | 0 W/m² | - |
| 1777438360 | 6.11° C | 73% | 935.1 hPa | 0 mm | - | 0 W/m² | - |
* Rain latest hour (hover to see other rain measurements)
** Current wind speed in m/s (hover to see current wind gust speed)